createdAt,value
2023-03-27T00:01:30.844Z,99537.06
2023-03-27T00:04:02.370Z,99538.38
2023-03-27T00:06:34.704Z,99535.13
2023-03-27T00:09:04.772Z,99532.94
2023-03-27T00:11:39.670Z,99534.88
2023-03-27T00:14:09.483Z,99535.35
2023-03-27T00:16:38.167Z,99531.58
2023-03-27T00:19:15.325Z,99527.95
2023-03-27T00:21:46.902Z,99528.20
2023-03-27T00:24:16.115Z,99533.29
2023-03-27T00:26:45.039Z,99536.63
2023-03-27T00:29:13.629Z,99539.25
2023-03-27T00:31:45.669Z,99536.09
2023-03-27T00:34:14.671Z,99534.95
2023-03-27T00:36:43.926Z,99535.37
2023-03-27T00:39:13.026Z,99533.94
2023-03-27T00:41:41.582Z,99529.05
2023-03-27T00:44:31.506Z,99527.36
2023-03-27T00:47:03.144Z,99529.04
2023-03-27T00:49:33.863Z,99526.47
2023-03-27T00:52:03.689Z,99527.20
2023-03-27T00:54:36.341Z,99529.06
2023-03-27T00:57:07.460Z,99532.13
2023-03-27T00:59:40.053Z,99531.77
2023-03-27T01:02:09.203Z,99539.65
2023-03-27T01:04:39.068Z,99537.81
2023-03-27T01:07:08.868Z,99539.98
2023-03-27T01:09:38.325Z,99541.77
2023-03-27T01:12:09.508Z,99545.35
2023-03-27T01:14:46.140Z,99549.35
2023-03-27T01:17:19.121Z,99553.52
2023-03-27T01:20:15.296Z,99554.00
2023-03-27T01:23:02.388Z,99552.09
2023-03-27T01:25:38.605Z,99556.21
2023-03-27T01:28:35.210Z,99555.89
2023-03-27T01:31:27.952Z,99554.25
2023-03-27T01:33:59.777Z,99556.90
2023-03-27T01:36:55.862Z,99561.84
2023-03-27T01:39:27.974Z,99561.95
2023-03-27T01:42:20.570Z,99563.59
2023-03-27T01:45:14.606Z,99567.16
2023-03-27T01:47:55.153Z,99563.86
2023-03-27T01:50:35.034Z,99563.70
2023-03-27T01:53:06.176Z,99568.02
2023-03-27T01:55:36.735Z,99565.20
2023-03-27T01:58:14.221Z,99569.10
2023-03-27T02:00:52.473Z,99567.06
2023-03-27T02:03:28.937Z,99567.31
2023-03-27T02:06:01.779Z,99570.95
2023-03-27T02:08:35.957Z,99571.10
2023-03-27T02:11:13.656Z,99573.31
2023-03-27T02:14:14.112Z,99567.49
2023-03-27T02:16:46.634Z,99565.48
2023-03-27T02:19:23.524Z,99561.97
2023-03-27T02:21:52.551Z,99561.77
2023-03-27T02:24:22.691Z,99555.13
2023-03-27T02:26:59.867Z,99558.78
2023-03-27T02:29:55.694Z,99558.69
2023-03-27T02:32:46.731Z,99563.12
2023-03-27T02:35:28.145Z,99566.09
2023-03-27T02:38:04.735Z,99572.61
2023-03-27T02:41:03.274Z,99577.75
2023-03-27T02:43:46.653Z,99572.46
2023-03-27T02:46:31.736Z,99576.70
2023-03-27T02:49:03.435Z,99575.13
2023-03-27T02:51:39.324Z,99581.89
2023-03-27T02:54:23.240Z,99583.73
2023-03-27T02:56:56.547Z,99587.09
2023-03-27T02:59:39.717Z,99584.20
2023-03-27T03:02:11.093Z,99590.19
2023-03-27T03:05:22.657Z,99589.85
2023-03-27T03:07:54.526Z,99590.71
2023-03-27T03:10:26.706Z,99590.79
2023-03-27T03:13:00.488Z,99592.92
2023-03-27T03:15:29.791Z,99590.35
2023-03-27T03:17:58.799Z,99592.14
2023-03-27T03:20:31.232Z,99591.89
2023-03-27T03:23:01.751Z,99586.70
2023-03-27T03:25:31.650Z,99585.39
2023-03-27T03:28:01.013Z,99582.48
2023-03-27T03:30:30.537Z,99585.86
2023-03-27T03:33:20.117Z,99584.88
2023-03-27T03:35:52.918Z,99587.94
2023-03-27T03:38:38.280Z,99590.16
2023-03-27T03:41:14.277Z,99594.38
2023-03-27T03:43:42.788Z,99598.30
2023-03-27T03:46:15.056Z,99605.20
2023-03-27T03:48:44.224Z,99609.20
2023-03-27T03:51:20.761Z,99611.40
2023-03-27T03:53:49.456Z,99616.88
2023-03-27T03:56:17.950Z,99620.09
2023-03-27T03:58:48.486Z,99618.50
2023-03-27T04:01:20.810Z,99614.44
2023-03-27T04:03:52.748Z,99621.10
2023-03-27T04:06:21.874Z,99623.77
2023-03-27T04:08:51.445Z,99626.74
2023-03-27T04:11:49.253Z,99628.29
2023-03-27T04:14:45.498Z,99630.60
2023-03-27T04:17:58.071Z,99637.09
2023-03-27T04:20:27.472Z,99635.52
2023-03-27T04:22:56.488Z,99636.54
2023-03-27T04:25:25.324Z,99641.04
2023-03-27T04:27:54.004Z,99641.39
2023-03-27T04:30:26.081Z,99650.48
2023-03-27T04:33:19.015Z,99653.27
2023-03-27T04:36:09.322Z,99664.25
2023-03-27T04:38:46.687Z,99660.34
2023-03-27T04:41:22.632Z,99659.85
2023-03-27T04:43:54.696Z,99666.64
2023-03-27T04:46:23.526Z,99668.01
2023-03-27T04:48:58.087Z,99674.16
2023-03-27T04:51:46.942Z,99676.46
2023-03-27T04:54:16.112Z,99671.17
2023-03-27T04:56:47.314Z,99669.36
2023-03-27T04:59:21.689Z,99675.29
2023-03-27T05:02:06.725Z,99679.23
2023-03-27T05:04:49.085Z,99677.40
2023-03-27T05:07:22.652Z,99680.79
2023-03-27T05:09:52.160Z,99683.88
2023-03-27T05:12:21.790Z,99686.48
2023-03-27T05:14:55.076Z,99686.84
2023-03-27T05:17:41.134Z,99687.81
2023-03-27T05:20:17.069Z,99692.20
2023-03-27T05:22:46.948Z,99695.50
2023-03-27T05:25:23.625Z,99694.14
2023-03-27T05:27:56.281Z,99689.64
2023-03-27T05:30:28.907Z,99687.38
2023-03-27T05:33:21.258Z,99688.51
2023-03-27T05:35:50.386Z,99689.23
2023-03-27T05:38:19.693Z,99690.44
2023-03-27T05:40:57.833Z,99687.34
2023-03-27T05:43:26.675Z,99691.85
2023-03-27T05:45:55.696Z,99691.56
2023-03-27T05:48:26.424Z,99692.96
2023-03-27T05:50:59.942Z,99698.92
2023-03-27T05:53:35.716Z,99702.91
2023-03-27T05:56:25.737Z,99708.52
2023-03-27T05:58:59.632Z,99717.23
2023-03-27T06:01:28.979Z,99720.39
2023-03-27T06:03:59.377Z,99725.20
2023-03-27T06:06:51.350Z,99724.34
2023-03-27T06:09:23.172Z,99729.23
2023-03-27T06:12:16.442Z,99732.34
2023-03-27T06:14:47.063Z,99735.05
2023-03-27T06:17:42.443Z,99739.91
2023-03-27T06:20:16.199Z,99740.42
2023-03-27T06:22:53.332Z,99745.11
2023-03-27T06:25:26.968Z,99749.70
2023-03-27T06:27:56.785Z,99752.38
2023-03-27T06:30:26.470Z,99756.46
2023-03-27T06:33:40.965Z,99761.67
2023-03-27T06:36:18.416Z,99765.64
2023-03-27T06:38:52.105Z,99770.11
2023-03-27T06:41:21.295Z,99776.15
2023-03-27T06:44:11.342Z,99782.48
2023-03-27T06:46:58.865Z,99785.09
2023-03-27T06:49:34.970Z,99785.16
2023-03-27T06:52:11.120Z,99787.92
2023-03-27T06:54:41.047Z,99790.77
2023-03-27T06:57:09.923Z,99789.14
2023-03-27T06:59:50.439Z,99788.13
2023-03-27T07:02:22.468Z,99785.70
2023-03-27T07:05:04.872Z,99784.44
2023-03-27T07:07:41.338Z,99785.77
2023-03-27T07:10:11.083Z,99785.40
2023-03-27T07:12:47.132Z,99789.22
2023-03-27T07:15:18.053Z,99795.91
2023-03-27T07:17:56.982Z,99792.40
2023-03-27T07:20:28.026Z,99797.67
2023-03-27T07:22:58.048Z,99794.41
2023-03-27T07:25:58.796Z,99791.08
2023-03-27T07:28:46.369Z,99792.52
2023-03-27T07:31:29.898Z,99788.29
2023-03-27T07:34:09.154Z,99788.65
2023-03-27T07:36:59.771Z,99782.23
2023-03-27T07:39:28.507Z,99773.70
2023-03-27T07:41:57.909Z,99775.94
2023-03-27T07:44:36.801Z,99778.10
2023-03-27T07:47:07.644Z,99779.96
2023-03-27T07:49:40.070Z,99785.27
2023-03-27T07:52:14.726Z,99789.08
2023-03-27T07:55:05.175Z,99787.59
2023-03-27T08:00:19.042Z,99775.05
2023-03-27T08:03:11.185Z,99782.59
2023-03-27T08:05:45.301Z,99784.15
2023-03-27T08:08:16.347Z,99785.33
2023-03-27T08:10:57.214Z,99787.51
2023-03-27T08:13:29.091Z,99786.41
2023-03-27T08:16:07.783Z,99785.23
2023-03-27T08:18:39.424Z,99788.42
2023-03-27T08:21:09.579Z,99786.73
2023-03-27T08:23:39.742Z,99786.91
2023-03-27T08:26:28.089Z,99786.92
2023-03-27T08:29:01.094Z,99779.67
2023-03-27T08:31:31.783Z,99779.27
2023-03-27T08:34:02.315Z,99782.28
2023-03-27T08:36:45.986Z,99787.41
2023-03-27T08:39:15.090Z,99783.09
2023-03-27T08:42:08.790Z,99784.27
2023-03-27T08:44:40.095Z,99791.75
2023-03-27T08:47:20.107Z,99794.61
2023-03-27T08:49:58.189Z,99796.84
2023-03-27T08:52:32.301Z,99798.09
2023-03-27T08:55:08.261Z,99799.56
2023-03-27T08:57:41.134Z,99802.92
2023-03-27T09:00:22.875Z,99804.70
2023-03-27T09:03:22.641Z,99803.60
2023-03-27T09:06:09.665Z,99807.73
2023-03-27T09:08:42.782Z,99811.59
2023-03-27T09:11:21.902Z,99814.73
2023-03-27T09:14:00.202Z,99815.41
2023-03-27T09:16:32.110Z,99813.79
2023-03-27T09:19:42.506Z,99811.72
2023-03-27T09:22:18.223Z,99816.95
2023-03-27T09:25:34.850Z,99822.80
2023-03-27T09:28:21.780Z,99817.41
2023-03-27T09:30:57.988Z,99815.27
2023-03-27T09:33:30.628Z,99813.58
2023-03-27T09:36:00.467Z,99816.70
2023-03-27T09:38:33.446Z,99811.55
2023-03-27T09:41:08.324Z,99812.67
2023-03-27T09:43:45.271Z,99821.77
2023-03-27T09:46:17.802Z,99820.41
2023-03-27T09:49:20.193Z,99821.48
2023-03-27T09:51:56.950Z,99811.84
2023-03-27T09:54:53.744Z,99816.03
2023-03-27T09:57:34.032Z,99818.45
2023-03-27T10:00:25.869Z,99826.19
2023-03-27T10:03:24.670Z,99827.35
2023-03-27T10:06:07.988Z,99826.35
2023-03-27T10:08:47.450Z,99826.73
2023-03-27T10:11:27.674Z,99826.61
2023-03-27T10:14:12.176Z,99820.10
2023-03-27T10:16:41.765Z,99819.98
2023-03-27T10:19:25.634Z,99820.77
2023-03-27T10:21:56.172Z,99821.36
2023-03-27T10:24:45.717Z,99822.45
2023-03-27T10:27:47.564Z,99816.55
2023-03-27T10:30:38.185Z,99814.73
2023-03-27T10:33:40.043Z,99811.00
2023-03-27T10:36:36.822Z,99810.53
2023-03-27T10:39:14.194Z,99809.64
2023-03-27T10:42:03.244Z,99812.89
2023-03-27T10:44:34.354Z,99814.95
2023-03-27T10:47:05.752Z,99811.02
2023-03-27T10:50:36.285Z,99808.62
2023-03-27T10:53:23.350Z,99811.45
2023-03-27T10:56:10.898Z,99815.11
2023-03-27T10:58:47.400Z,99814.48
2023-03-27T11:01:28.671Z,99814.84
2023-03-27T11:04:10.486Z,99818.58
2023-03-27T11:06:46.719Z,99817.00
2023-03-27T11:09:19.825Z,99822.61
2023-03-27T11:12:10.806Z,99818.07
2023-03-27T11:14:51.696Z,99813.80
2023-03-27T11:17:29.228Z,99813.69
2023-03-27T11:20:26.233Z,99815.61
2023-03-27T11:23:34.550Z,99814.59
2023-03-27T11:26:23.506Z,99809.34
2023-03-27T11:29:14.193Z,99815.80
2023-03-27T11:31:56.097Z,99819.48
2023-03-27T11:34:49.284Z,99814.59
2023-03-27T11:37:45.667Z,99819.40
2023-03-27T11:40:24.115Z,99819.02
2023-03-27T11:42:59.005Z,99822.62
2023-03-27T11:45:29.941Z,99826.66
2023-03-27T11:48:36.482Z,99825.46
2023-03-27T11:51:07.995Z,99824.51
2023-03-27T11:53:48.904Z,99825.01
2023-03-27T11:56:33.528Z,99825.73
2023-03-27T11:59:51.465Z,99826.13
2023-03-27T12:03:07.033Z,99826.86
2023-03-27T12:05:55.412Z,99825.53
2023-03-27T12:08:45.941Z,99829.33
2023-03-27T12:11:15.025Z,99829.97
2023-03-27T12:14:01.727Z,99830.77
2023-03-27T12:16:55.295Z,99836.65
2023-03-27T12:19:52.046Z,99835.77
2023-03-27T12:23:02.575Z,99834.33
2023-03-27T12:26:09.177Z,99837.98
2023-03-27T12:29:25.765Z,99834.98
2023-03-27T12:32:39.677Z,99839.30
2023-03-27T12:35:11.702Z,99836.98
2023-03-27T12:38:04.437Z,99838.50
2023-03-27T12:40:40.001Z,99832.59
2023-03-27T12:43:31.822Z,99837.52
2023-03-27T12:46:24.817Z,99838.31
2023-03-27T12:49:07.803Z,99841.96
2023-03-27T12:51:54.301Z,99843.59
2023-03-27T12:54:39.402Z,99838.95
2023-03-27T12:57:27.534Z,99836.85
2023-03-27T13:00:00.271Z,99838.73
2023-03-27T13:02:35.078Z,99837.17
2023-03-27T13:05:08.635Z,99835.27
2023-03-27T13:08:01.972Z,99836.23
2023-03-27T13:10:59.540Z,99833.80
2023-03-27T13:13:50.322Z,99829.86
2023-03-27T13:16:20.520Z,99833.05
2023-03-27T13:19:16.924Z,99828.71
2023-03-27T13:22:23.903Z,99826.02
2023-03-27T13:25:43.720Z,99824.60
2023-03-27T13:28:16.024Z,99828.04
2023-03-27T13:30:56.086Z,99816.81
2023-03-27T13:33:47.703Z,99827.38
2023-03-27T13:36:30.317Z,99822.80
2023-03-27T13:39:06.626Z,99819.95
2023-03-27T13:41:44.628Z,99822.45
2023-03-27T13:44:43.833Z,99822.75
2023-03-27T13:47:30.726Z,99824.86
2023-03-27T13:50:24.157Z,99827.05
2023-03-27T13:53:25.859Z,99825.36
2023-03-27T13:56:20.814Z,99827.41
2023-03-27T13:59:37.786Z,99823.52
2023-03-27T14:02:16.535Z,99819.46
2023-03-27T14:05:14.125Z,99817.02
2023-03-27T14:08:27.200Z,99819.41
2023-03-27T14:11:28.106Z,99821.43
2023-03-27T14:14:27.874Z,99821.65
2023-03-27T14:16:57.100Z,99824.90
2023-03-27T14:19:43.231Z,99827.09
2023-03-27T14:22:17.775Z,99827.98
2023-03-27T14:24:57.976Z,99827.73
2023-03-27T14:27:36.009Z,99825.50
2023-03-27T14:30:10.340Z,99823.38
2023-03-27T14:32:40.325Z,99821.27
2023-03-27T14:35:43.985Z,99825.68
2023-03-27T14:38:25.042Z,99830.73
2023-03-27T14:41:05.246Z,99823.17
2023-03-27T14:43:53.597Z,99820.48
2023-03-27T14:46:23.805Z,99817.10
2023-03-27T14:48:54.757Z,99819.76
2023-03-27T14:51:34.054Z,99821.72
2023-03-27T14:54:07.133Z,99819.73
2023-03-27T14:57:03.086Z,99818.32
2023-03-27T14:59:38.809Z,99817.19
2023-03-27T15:02:23.823Z,99813.21
2023-03-27T15:04:58.502Z,99812.78
2023-03-27T15:07:30.816Z,99815.90
2023-03-27T15:10:07.758Z,99813.29
2023-03-27T15:13:10.177Z,99818.86
2023-03-27T15:15:43.079Z,99817.55
2023-03-27T15:18:25.722Z,99818.73
2023-03-27T15:20:54.705Z,99816.65
2023-03-27T15:23:25.553Z,99818.69
2023-03-27T15:26:31.781Z,99821.48
2023-03-27T15:29:18.868Z,99825.25
2023-03-27T15:31:49.331Z,99828.19
2023-03-27T15:34:35.260Z,99832.45
2023-03-27T15:37:06.490Z,99832.22
2023-03-27T15:39:36.780Z,99836.69
2023-03-27T15:42:17.207Z,99838.95
2023-03-27T15:44:46.196Z,99841.66
2023-03-27T15:47:25.831Z,99845.05
2023-03-27T15:50:15.423Z,99846.67
2023-03-27T15:52:52.447Z,99843.33
2023-03-27T15:55:36.610Z,99844.55
2023-03-27T15:58:29.894Z,99841.98
2023-03-27T16:01:00.742Z,99842.41
2023-03-27T16:03:31.554Z,99841.84
2023-03-27T16:06:01.303Z,99847.77
2023-03-27T16:08:37.148Z,99846.09
2023-03-27T16:11:06.597Z,99847.18
2023-03-27T16:13:37.503Z,99851.73
2023-03-27T16:16:37.080Z,99857.34
2023-03-27T16:19:11.788Z,99853.81
2023-03-27T16:21:40.922Z,99855.30
2023-03-27T16:24:09.575Z,99857.20
2023-03-27T16:26:46.085Z,99861.54
2023-03-27T16:29:15.056Z,99857.95
2023-03-27T16:31:47.977Z,99858.16
2023-03-27T16:34:22.272Z,99862.92
2023-03-27T16:36:51.960Z,99863.23
2023-03-27T16:39:23.918Z,99861.65
2023-03-27T16:41:53.096Z,99858.58
2023-03-27T16:44:22.406Z,99859.66
2023-03-27T16:46:51.113Z,99864.45
2023-03-27T16:49:20.060Z,99862.62
2023-03-27T16:51:49.282Z,99869.06
2023-03-27T16:54:18.850Z,99872.73
2023-03-27T16:56:52.379Z,99870.30
2023-03-27T16:59:21.236Z,99871.10
2023-03-27T17:01:49.962Z,99874.46
2023-03-27T17:04:18.716Z,99877.02
2023-03-27T17:06:48.375Z,99879.15
2023-03-27T17:09:17.157Z,99882.53
2023-03-27T17:11:46.392Z,99883.20
2023-03-27T17:14:16.004Z,99886.38
2023-03-27T17:16:45.235Z,99888.95
2023-03-27T17:19:14.298Z,99888.50
2023-03-27T17:21:43.242Z,99892.39
2023-03-27T17:24:12.109Z,99886.42
2023-03-27T17:26:41.650Z,99887.37
2023-03-27T17:29:19.271Z,99890.19
2023-03-27T17:31:48.321Z,99887.05
2023-03-27T17:34:19.739Z,99889.58
2023-03-27T17:36:54.205Z,99891.16
2023-03-27T17:39:25.221Z,99891.11
2023-03-27T17:41:54.129Z,99892.83
2023-03-27T17:44:27.820Z,99889.80
2023-03-27T17:52:29.215Z,99892.49
2023-03-27T17:54:58.791Z,99887.45
2023-03-27T17:57:31.158Z,99890.33
2023-03-27T18:00:00.347Z,99884.61
2023-03-27T18:02:34.422Z,99880.27
2023-03-27T18:05:29.881Z,99880.11
2023-03-27T18:07:59.216Z,99884.86
2023-03-27T18:10:35.430Z,99882.13
2023-03-27T18:13:04.464Z,99880.56
2023-03-27T18:15:33.519Z,99880.68
2023-03-27T18:18:03.884Z,99879.67
2023-03-27T18:20:36.694Z,99876.61
2023-03-27T18:23:06.437Z,99879.68
2023-03-27T18:25:43.390Z,99880.10
2023-03-27T18:28:12.614Z,99882.70
2023-03-27T18:30:43.626Z,99887.02
2023-03-27T18:33:19.364Z,99884.77
2023-03-27T18:35:56.580Z,99884.96
2023-03-27T18:38:26.370Z,99880.50
2023-03-27T18:41:00.089Z,99882.79
2023-03-27T18:43:50.463Z,99880.65
2023-03-27T18:46:19.683Z,99878.27
2023-03-27T18:48:49.557Z,99875.54
2023-03-27T18:51:19.205Z,99874.84
2023-03-27T18:53:48.593Z,99872.55
2023-03-27T18:56:21.603Z,99871.97
2023-03-27T18:58:52.454Z,99872.19
2023-03-27T19:01:22.005Z,99869.15
2023-03-27T19:03:54.528Z,99869.46
2023-03-27T19:06:43.644Z,99866.42
2023-03-27T19:09:13.364Z,99868.73
2023-03-27T19:11:44.201Z,99869.74
2023-03-27T19:14:32.184Z,99871.17
2023-03-27T19:17:49.063Z,99871.08
2023-03-27T19:20:36.506Z,99866.40
2023-03-27T19:23:20.084Z,99871.59
2023-03-27T19:26:01.646Z,99869.96
2023-03-27T19:28:30.575Z,99872.03
2023-03-27T19:31:11.054Z,99876.92
2023-03-27T19:34:40.043Z,99877.98
2023-03-27T19:37:24.715Z,99874.84
2023-03-27T19:39:53.850Z,99863.80
2023-03-27T19:42:22.676Z,99863.98
2023-03-27T19:44:51.538Z,99865.27
2023-03-27T19:47:21.613Z,99858.91
2023-03-27T19:49:50.379Z,99856.02
2023-03-27T19:52:20.374Z,99853.28
2023-03-27T19:54:54.134Z,99850.96
2023-03-27T19:57:25.307Z,99847.44
2023-03-27T19:59:54.088Z,99846.38
2023-03-27T20:02:23.276Z,99845.41
2023-03-27T20:04:52.396Z,99840.51
2023-03-27T20:07:21.122Z,99838.35
2023-03-27T20:09:51.526Z,99832.25
2023-03-27T20:12:20.196Z,99828.45
2023-03-27T20:15:07.022Z,99820.34
2023-03-27T20:17:41.287Z,99816.10
2023-03-27T20:20:11.413Z,99814.90
2023-03-27T20:22:57.154Z,99814.54
2023-03-27T20:25:32.521Z,99816.28
2023-03-27T20:28:01.677Z,99817.08
2023-03-27T20:30:31.075Z,99818.55
2023-03-27T20:33:03.255Z,99815.13
2023-03-27T20:35:33.228Z,99813.63
2023-03-27T20:38:05.786Z,99808.35
2023-03-27T20:40:53.856Z,99807.64
2023-03-27T20:43:27.511Z,99805.33
2023-03-27T20:46:02.308Z,99803.90
2023-03-27T20:48:40.517Z,99800.40
2023-03-27T20:51:16.388Z,99803.57
2023-03-27T20:53:48.534Z,99802.84
2023-03-27T20:56:21.954Z,99800.38
2023-03-27T20:58:54.106Z,99791.98
2023-03-27T21:01:28.093Z,99791.62
2023-03-27T21:03:58.798Z,99792.91
2023-03-27T21:06:28.381Z,99796.86
2023-03-27T21:09:00.850Z,99793.59
2023-03-27T21:11:31.200Z,99794.85
2023-03-27T21:14:01.261Z,99794.08
2023-03-27T21:16:31.785Z,99798.86
2023-03-27T21:19:01.021Z,99798.90
2023-03-27T21:21:54.360Z,99798.13
2023-03-27T21:24:23.539Z,99800.19
2023-03-27T21:26:52.021Z,99802.43
2023-03-27T21:29:27.927Z,99803.20
2023-03-27T21:31:57.040Z,99806.46
2023-03-27T21:34:25.948Z,99803.13
2023-03-27T21:36:56.267Z,99796.73
2023-03-27T21:39:25.484Z,99799.56
2023-03-27T21:41:55.315Z,99798.26
2023-03-27T21:44:24.031Z,99797.14
2023-03-27T21:46:54.906Z,99801.42
2023-03-27T21:49:26.763Z,99799.78
2023-03-27T21:51:55.520Z,99796.66
2023-03-27T21:54:25.476Z,99794.41
2023-03-27T21:56:54.100Z,99785.48
2023-03-27T21:59:22.784Z,99780.84
2023-03-27T22:01:51.773Z,99777.44
2023-03-27T22:04:22.217Z,99780.54
2023-03-27T22:06:51.097Z,99777.84
2023-03-27T22:09:20.626Z,99772.75
2023-03-27T22:11:49.666Z,99776.14
2023-03-27T22:14:18.591Z,99773.24
2023-03-27T22:16:48.972Z,99775.70
2023-03-27T22:19:17.663Z,99777.39
2023-03-27T22:21:50.890Z,99781.10
2023-03-27T22:24:19.450Z,99782.69
2023-03-27T22:26:48.459Z,99781.73
2023-03-27T22:29:17.091Z,99779.20
2023-03-27T22:31:47.034Z,99781.61
2023-03-27T22:34:16.012Z,99773.45
2023-03-27T22:36:44.753Z,99773.09
2023-03-27T22:39:13.539Z,99777.95
2023-03-27T22:41:47.036Z,99767.13
2023-03-27T22:44:16.635Z,99767.34
2023-03-27T22:46:48.966Z,99759.98
2023-03-27T22:49:31.580Z,99758.54
2023-03-27T22:52:01.621Z,99754.83
2023-03-27T22:54:35.340Z,99752.18
2023-03-27T22:57:04.894Z,99757.28
2023-03-27T22:59:42.112Z,99749.45
2023-03-27T23:02:11.201Z,99748.23
2023-03-27T23:04:40.071Z,99744.35
2023-03-27T23:07:13.235Z,99743.15
2023-03-27T23:09:44.724Z,99743.73
2023-03-27T23:12:13.492Z,99744.39
2023-03-27T23:14:45.250Z,99744.80
2023-03-27T23:17:14.178Z,99741.86
2023-03-27T23:19:42.902Z,99741.95
2023-03-27T23:22:13.285Z,99740.07
2023-03-27T23:24:42.041Z,99741.03
2023-03-27T23:27:10.834Z,99739.93
2023-03-27T23:29:40.607Z,99732.52
2023-03-27T23:32:09.463Z,99722.14
2023-03-27T23:34:39.121Z,99708.52
2023-03-27T23:37:08.024Z,99712.34
2023-03-27T23:39:39.967Z,99712.06
2023-03-27T23:42:09.470Z,99711.80
2023-03-27T23:44:38.837Z,99711.39
2023-03-27T23:47:07.385Z,99711.53
2023-03-27T23:49:39.089Z,99708.91
2023-03-27T23:52:12.511Z,99706.23
2023-03-27T23:54:42.314Z,99697.34
2023-03-27T23:57:11.047Z,99697.71
2023-03-27T23:59:59.389Z,99693.08
